createdAt,value
2017-01-15T00:00:26.783Z,3.13
2017-01-15T00:01:26.759Z,3.15
2017-01-15T00:02:26.101Z,3.07
2017-01-15T00:03:25.669Z,3.13
2017-01-15T00:04:26.386Z,3.03
2017-01-15T00:05:25.601Z,3.05
2017-01-15T00:06:27.040Z,3.06
2017-01-15T00:07:26.270Z,3.07
2017-01-15T00:08:26.598Z,2.99
2017-01-15T00:09:26.877Z,3.05
2017-01-15T00:10:26.184Z,3.09
2017-01-15T00:11:25.830Z,3.07
2017-01-15T00:12:26.079Z,3.15
2017-01-15T00:13:25.785Z,3.24
2017-01-15T00:14:25.734Z,3.28
2017-01-15T00:15:26.728Z,3.28
2017-01-15T00:16:26.029Z,3.09
2017-01-15T00:17:26.009Z,3.06
2017-01-15T00:18:25.856Z,3.05
2017-01-15T00:19:26.664Z,2.97
2017-01-15T00:20:26.656Z,2.95
2017-01-15T00:21:25.692Z,2.95
2017-01-15T00:22:25.599Z,2.97
2017-01-15T00:23:25.113Z,2.95
2017-01-15T00:24:25.834Z,2.92
2017-01-15T00:25:25.149Z,2.99
2017-01-15T00:26:26.112Z,2.92
2017-01-15T00:27:26.393Z,3.02
2017-01-15T00:28:26.376Z,2.99
2017-01-15T00:29:25.700Z,2.94
2017-01-15T00:30:25.692Z,2.97
2017-01-15T00:31:25.959Z,2.95
2017-01-15T00:32:26.150Z,2.97
2017-01-15T00:33:25.583Z,2.92
2017-01-15T00:34:25.567Z,2.98
2017-01-15T00:35:25.534Z,2.95
2017-01-15T00:36:25.837Z,2.94
2017-01-15T00:37:25.864Z,2.97
2017-01-15T00:38:25.101Z,2.99
2017-01-15T00:39:25.418Z,2.94
2017-01-15T00:40:25.472Z,2.97
2017-01-15T00:41:25.728Z,3.02
2017-01-15T00:42:25.892Z,3.05
2017-01-15T00:43:25.305Z,2.97
2017-01-15T00:44:25.046Z,2.95
2017-01-15T00:45:25.649Z,3.02
2017-01-15T00:46:24.925Z,2.94
2017-01-15T00:47:25.205Z,2.92
2017-01-15T00:48:25.115Z,2.99
2017-01-15T00:49:25.805Z,2.98
2017-01-15T00:50:24.843Z,2.87
2017-01-15T00:51:24.458Z,2.94
2017-01-15T00:52:25.278Z,2.94
2017-01-15T00:53:25.579Z,2.87
2017-01-15T00:54:25.690Z,2.84
2017-01-15T00:55:24.985Z,2.84
2017-01-15T00:56:25.613Z,2.87
2017-01-15T00:57:24.618Z,2.94
2017-01-15T00:58:25.592Z,2.95
2017-01-15T00:59:24.906Z,2.87
2017-01-15T01:00:24.236Z,2.88
2017-01-15T01:01:24.231Z,2.91
2017-01-15T01:02:25.130Z,2.98
2017-01-15T01:03:25.124Z,2.97
2017-01-15T01:04:25.419Z,2.94
2017-01-15T01:05:24.757Z,2.84
2017-01-15T01:06:24.412Z,2.8
2017-01-15T01:07:25.001Z,2.85
2017-01-15T01:08:24.333Z,2.97
2017-01-15T01:09:24.744Z,2.85
2017-01-15T01:10:25.151Z,2.91
2017-01-15T01:11:24.601Z,2.92
2017-01-15T01:12:24.570Z,2.87
2017-01-15T01:13:24.528Z,2.99
2017-01-15T01:14:24.688Z,2.87
2017-01-15T01:15:24.386Z,2.97
2017-01-15T01:16:24.784Z,2.92
2017-01-15T01:17:24.112Z,2.92
2017-01-15T01:18:24.550Z,2.95
2017-01-15T01:19:24.279Z,2.97
2017-01-15T01:20:25.003Z,2.94
2017-01-15T01:21:23.909Z,2.92
2017-01-15T01:22:24.205Z,2.91
2017-01-15T01:23:23.847Z,2.95
2017-01-15T01:24:24.231Z,2.97
2017-01-15T01:25:24.363Z,2.88
2017-01-15T01:26:24.506Z,2.8
2017-01-15T01:27:24.337Z,2.89
2017-01-15T01:28:24.364Z,2.98
2017-01-15T01:29:24.597Z,3.03
2017-01-15T01:30:24.094Z,2.89
2017-01-15T01:31:24.749Z,2.77
2017-01-15T01:32:24.527Z,2.89
2017-01-15T01:33:23.721Z,2.98
2017-01-15T01:34:23.986Z,3.02
2017-01-15T01:35:24.694Z,3.05
2017-01-15T01:36:24.237Z,3.09
2017-01-15T01:37:23.912Z,3.05
2017-01-15T01:38:23.763Z,3.1
2017-01-15T01:39:24.529Z,3.13
2017-01-15T01:40:23.651Z,3.13
2017-01-15T01:41:23.448Z,3.12
2017-01-15T01:42:24.435Z,3.05
2017-01-15T01:43:23.392Z,3.06
2017-01-15T01:44:23.628Z,3.07
2017-01-15T01:45:23.538Z,2.91
2017-01-15T01:46:23.300Z,2.92
2017-01-15T01:47:23.486Z,2.77
2017-01-15T01:48:24.298Z,2.76
2017-01-15T01:49:23.571Z,2.79
2017-01-15T01:50:23.564Z,2.88
2017-01-15T01:51:24.170Z,2.84
2017-01-15T01:52:24.150Z,2.87
2017-01-15T01:53:23.804Z,2.84
2017-01-15T01:54:22.711Z,2.81
2017-01-15T01:55:23.342Z,2.77
2017-01-15T01:56:23.721Z,2.73
2017-01-15T01:57:23.373Z,2.79
2017-01-15T01:58:22.920Z,2.71
2017-01-15T01:59:23.983Z,2.76
2017-01-15T02:00:23.950Z,2.79
2017-01-15T02:01:23.569Z,2.84
2017-01-15T02:02:23.228Z,2.77
2017-01-15T02:03:23.190Z,2.81
2017-01-15T02:04:23.101Z,2.85
2017-01-15T02:05:23.835Z,2.85
2017-01-15T02:06:23.456Z,2.79
2017-01-15T02:07:23.741Z,2.64
2017-01-15T02:08:22.978Z,2.69
2017-01-15T02:09:23.440Z,2.59
2017-01-15T02:10:22.194Z,2.66
2017-01-15T02:11:22.640Z,2.66
2017-01-15T02:12:22.311Z,2.7
2017-01-15T02:13:23.026Z,2.69
2017-01-15T02:14:22.530Z,2.67
2017-01-15T02:15:23.542Z,2.69
2017-01-15T02:16:22.850Z,2.66
2017-01-15T02:17:22.736Z,2.77
2017-01-15T02:18:22.800Z,2.7
2017-01-15T02:19:22.680Z,2.69
2017-01-15T02:20:21.925Z,2.59
2017-01-15T02:21:22.727Z,2.64
2017-01-15T02:22:22.614Z,2.62
2017-01-15T02:23:23.004Z,2.58
2017-01-15T02:24:22.557Z,2.58
2017-01-15T02:25:22.957Z,2.56
2017-01-15T02:26:22.617Z,2.55
2017-01-15T02:27:22.553Z,2.49
2017-01-15T02:28:22.511Z,2.44
2017-01-15T02:29:23.172Z,2.43
2017-01-15T02:30:22.796Z,2.55
2017-01-15T02:31:22.634Z,2.56
2017-01-15T02:32:22.873Z,2.55
2017-01-15T02:33:22.409Z,2.59
2017-01-15T02:34:22.657Z,2.59
2017-01-15T02:35:22.874Z,2.56
2017-01-15T02:36:22.980Z,2.52
2017-01-15T02:37:21.971Z,2.67
2017-01-15T02:38:22.805Z,2.49
2017-01-15T02:39:21.921Z,2.49
2017-01-15T02:40:21.560Z,2.49
2017-01-15T02:41:21.763Z,2.49
2017-01-15T02:42:22.490Z,2.55
2017-01-15T02:43:21.486Z,2.64
2017-01-15T02:44:22.113Z,2.61
2017-01-15T02:45:22.001Z,2.52
2017-01-15T02:46:22.075Z,2.41
2017-01-15T02:47:21.377Z,2.56
2017-01-15T02:48:21.257Z,2.48
2017-01-15T02:49:21.645Z,2.53
2017-01-15T02:50:21.641Z,2.4
2017-01-15T02:51:22.414Z,2.35
2017-01-15T02:52:22.513Z,2.31
2017-01-15T02:53:21.624Z,2.28
2017-01-15T02:54:22.373Z,2.37
2017-01-15T02:55:22.018Z,2.43
2017-01-15T02:56:21.763Z,2.37
2017-01-15T02:57:22.062Z,2.48
2017-01-15T02:58:22.047Z,2.53
2017-01-15T02:59:21.458Z,2.56
2017-01-15T03:00:22.321Z,2.56
2017-01-15T03:01:21.565Z,2.66
2017-01-15T03:02:20.890Z,2.62
2017-01-15T03:03:21.920Z,2.41
2017-01-15T03:04:22.228Z,2.52
2017-01-15T03:05:21.407Z,2.49
2017-01-15T03:06:21.604Z,2.48
2017-01-15T03:07:21.809Z,2.48
2017-01-15T03:08:21.384Z,2.46
2017-01-15T03:09:21.106Z,2.41
2017-01-15T03:10:21.397Z,2.58
2017-01-15T03:11:21.296Z,2.52
2017-01-15T03:12:20.704Z,2.53
2017-01-15T03:13:21.000Z,2.61
2017-01-15T03:14:21.491Z,2.61
2017-01-15T03:15:21.965Z,2.48
2017-01-15T03:16:21.233Z,2.55
2017-01-15T03:17:21.560Z,2.62
2017-01-15T03:18:21.126Z,2.55
2017-01-15T03:19:21.808Z,2.59
2017-01-15T03:20:21.127Z,2.64
2017-01-15T03:21:21.432Z,2.64
2017-01-15T03:22:21.460Z,2.59
2017-01-15T03:23:21.585Z,2.53
2017-01-15T03:24:20.695Z,2.43
2017-01-15T03:25:21.036Z,2.49
2017-01-15T03:26:20.356Z,2.51
2017-01-15T03:27:20.619Z,2.53
2017-01-15T03:28:21.586Z,2.46
2017-01-15T03:29:21.226Z,2.51
2017-01-15T03:30:20.214Z,2.46
2017-01-15T03:31:20.190Z,2.56
2017-01-15T03:32:19.996Z,2.52
2017-01-15T03:33:20.783Z,2.44
2017-01-15T03:34:21.299Z,2.58
2017-01-15T03:35:20.730Z,2.56
2017-01-15T03:36:20.693Z,2.48
2017-01-15T03:37:20.672Z,2.49
2017-01-15T03:38:20.664Z,2.58
2017-01-15T03:39:20.290Z,2.56
2017-01-15T03:40:20.592Z,2.61
2017-01-15T03:41:20.577Z,2.58
2017-01-15T03:42:21.239Z,2.64
2017-01-15T03:43:20.190Z,2.71
2017-01-15T03:44:20.482Z,2.76
2017-01-15T03:45:20.393Z,2.67
2017-01-15T03:46:20.422Z,2.69
2017-01-15T03:47:20.723Z,2.77
2017-01-15T03:48:20.411Z,2.64
2017-01-15T03:49:20.044Z,2.79
2017-01-15T03:50:20.659Z,2.79
2017-01-15T03:51:20.305Z,2.8
2017-01-15T03:52:20.260Z,2.84
2017-01-15T03:53:20.184Z,2.79
2017-01-15T03:54:20.204Z,2.77
2017-01-15T03:55:20.724Z,2.71
2017-01-15T03:56:20.812Z,2.77
2017-01-15T03:57:20.558Z,2.61
2017-01-15T03:58:20.430Z,2.66
2017-01-15T03:59:20.102Z,2.67
2017-01-15T04:00:20.396Z,2.69
2017-01-15T04:01:20.715Z,2.7
2017-01-15T04:02:19.379Z,2.71
2017-01-15T04:03:19.657Z,2.64
2017-01-15T04:04:19.958Z,2.69
2017-01-15T04:05:20.255Z,2.73
2017-01-15T04:06:20.090Z,2.66
2017-01-15T04:07:19.873Z,2.66
2017-01-15T04:08:19.864Z,2.7
2017-01-15T04:09:20.149Z,2.71
2017-01-15T04:10:20.113Z,2.67
2017-01-15T04:11:20.101Z,2.69
2017-01-15T04:12:19.765Z,2.67
2017-01-15T04:13:19.734Z,2.61
2017-01-15T04:14:20.371Z,2.67
2017-01-15T04:15:20.178Z,2.58
2017-01-15T04:16:20.212Z,2.69
2017-01-15T04:17:19.925Z,2.84
2017-01-15T04:18:20.114Z,2.77
2017-01-15T04:19:20.251Z,2.76
2017-01-15T04:20:20.057Z,2.77
2017-01-15T04:21:19.365Z,2.79
2017-01-15T04:22:20.124Z,2.8
2017-01-15T04:23:18.628Z,2.76
2017-01-15T04:24:19.358Z,2.61
2017-01-15T04:25:19.183Z,2.58
2017-01-15T04:26:19.710Z,2.58
2017-01-15T04:27:19.020Z,2.67
2017-01-15T04:28:19.317Z,2.7
2017-01-15T04:29:19.294Z,2.79
2017-01-15T04:30:19.264Z,2.79
2017-01-15T04:31:18.639Z,2.73
2017-01-15T04:32:19.858Z,2.74
2017-01-15T04:33:19.842Z,2.69
2017-01-15T04:34:19.015Z,2.7
2017-01-15T04:35:19.145Z,2.61
2017-01-15T04:36:19.109Z,2.59
2017-01-15T04:37:19.612Z,2.56
2017-01-15T04:38:19.420Z,2.46
2017-01-15T04:39:19.549Z,2.52
2017-01-15T04:40:18.985Z,2.49
2017-01-15T04:41:18.967Z,2.49
2017-01-15T04:42:18.282Z,2.43
2017-01-15T04:43:18.775Z,2.52
2017-01-15T04:44:18.758Z,2.48
2017-01-15T04:45:19.503Z,2.51
2017-01-15T04:46:18.932Z,2.53
2017-01-15T04:47:19.133Z,2.48
2017-01-15T04:48:19.111Z,2.55
2017-01-15T04:49:18.113Z,2.51
2017-01-15T04:50:18.740Z,2.51
2017-01-15T04:51:19.012Z,2.31
2017-01-15T04:52:18.784Z,2.23
2017-01-15T04:53:18.658Z,2.34
2017-01-15T04:54:18.681Z,2.26
2017-01-15T04:55:18.898Z,2.25
2017-01-15T04:56:18.509Z,2.26
2017-01-15T04:57:18.869Z,2.2
2017-01-15T04:58:18.485Z,2.35
2017-01-15T04:59:18.484Z,2.37
2017-01-15T05:00:18.567Z,2.4
2017-01-15T05:01:18.451Z,2.44
2017-01-15T05:02:18.336Z,2.43
2017-01-15T05:03:19.045Z,2.41
2017-01-15T05:04:18.012Z,2.43
2017-01-15T05:05:18.230Z,2.35
2017-01-15T05:06:18.822Z,2.37
2017-01-15T05:07:18.126Z,2.53
2017-01-15T05:08:17.902Z,2.46
2017-01-15T05:09:18.132Z,2.48
2017-01-15T05:10:18.516Z,2.51
2017-01-15T05:11:18.350Z,2.49
2017-01-15T05:12:17.716Z,2.43
2017-01-15T05:13:18.120Z,2.49
2017-01-15T05:14:18.729Z,2.51
2017-01-15T05:15:17.398Z,2.53
2017-01-15T05:16:18.187Z,2.48
2017-01-15T05:17:18.330Z,2.49
2017-01-15T05:18:17.990Z,2.46
2017-01-15T05:19:17.936Z,2.44
2017-01-15T05:20:17.796Z,2.44
2017-01-15T05:21:17.805Z,2.55
2017-01-15T05:22:17.888Z,2.48
2017-01-15T05:23:18.164Z,2.58
2017-01-15T05:24:17.822Z,2.43
2017-01-15T05:25:17.457Z,2.48
2017-01-15T05:26:17.703Z,2.61
2017-01-15T05:27:18.382Z,2.59
2017-01-15T05:28:17.072Z,2.66
2017-01-15T05:29:18.338Z,2.61
2017-01-15T05:30:17.639Z,2.56
2017-01-15T05:31:18.258Z,2.46
2017-01-15T05:32:17.522Z,2.52
2017-01-15T05:33:16.834Z,2.52
2017-01-15T05:34:17.381Z,2.52
2017-01-15T05:35:17.843Z,2.48
2017-01-15T05:36:17.475Z,2.48
2017-01-15T05:37:17.445Z,2.51
2017-01-15T05:38:18.096Z,2.49
2017-01-15T05:39:17.197Z,2.44
2017-01-15T05:40:16.693Z,2.51
2017-01-15T05:41:17.683Z,2.61
2017-01-15T05:42:17.333Z,2.46
2017-01-15T05:43:17.621Z,2.48
2017-01-15T05:44:17.061Z,2.43
2017-01-15T05:45:17.280Z,2.4
2017-01-15T05:46:17.890Z,2.38
2017-01-15T05:47:17.856Z,2.43
2017-01-15T05:48:17.144Z,2.52
2017-01-15T05:49:17.828Z,2.53
2017-01-15T05:50:17.043Z,2.48
2017-01-15T05:51:17.253Z,2.51
2017-01-15T05:52:17.722Z,2.49
2017-01-15T05:53:17.081Z,2.53
2017-01-15T05:54:16.859Z,2.53
2017-01-15T05:55:16.892Z,2.48
2017-01-15T05:56:16.978Z,2.46
2017-01-15T05:57:16.280Z,2.49
2017-01-15T05:58:16.752Z,2.51
2017-01-15T05:59:16.889Z,2.52
2017-01-15T06:00:16.941Z,2.44
2017-01-15T06:01:17.137Z,2.46
2017-01-15T06:02:16.790Z,2.35
2017-01-15T06:03:16.779Z,2.43
2017-01-15T06:04:17.378Z,2.35
2017-01-15T06:05:17.373Z,2.31
2017-01-15T06:06:16.677Z,2.3
2017-01-15T06:07:16.657Z,2.37
2017-01-15T06:08:16.626Z,2.26
2017-01-15T06:09:16.527Z,2.3
2017-01-15T06:10:16.159Z,2.3
2017-01-15T06:11:16.441Z,2.3
2017-01-15T06:12:17.183Z,2.23
2017-01-15T06:13:16.277Z,2.25
2017-01-15T06:14:16.469Z,2.22
2017-01-15T06:15:16.283Z,2.33
2017-01-15T06:16:16.393Z,2.23
2017-01-15T06:17:16.708Z,2.26
2017-01-15T06:18:16.685Z,2.33
2017-01-15T06:19:16.512Z,2.3
2017-01-15T06:20:16.320Z,2.23
2017-01-15T06:21:16.459Z,2.19
2017-01-15T06:22:16.180Z,2.3
2017-01-15T06:23:16.129Z,2.22
2017-01-15T06:24:16.194Z,2.25
2017-01-15T06:25:16.496Z,2.22
2017-01-15T06:26:16.786Z,2.3
2017-01-15T06:27:16.445Z,2.17
2017-01-15T06:28:16.076Z,2.26
2017-01-15T06:29:16.055Z,2.22
2017-01-15T06:30:15.700Z,2.2
2017-01-15T06:31:16.088Z,2.19
2017-01-15T06:32:15.893Z,2.25
2017-01-15T06:33:16.261Z,2.23
2017-01-15T06:34:15.589Z,2.17
2017-01-15T06:35:16.212Z,2.26
2017-01-15T06:36:16.191Z,2.19
2017-01-15T06:37:15.113Z,2.2
2017-01-15T06:38:15.843Z,2.19
2017-01-15T06:39:15.839Z,2.25
2017-01-15T06:40:15.708Z,2.19
2017-01-15T06:41:16.408Z,2.31
2017-01-15T06:42:15.623Z,2.34
2017-01-15T06:43:15.703Z,2.28
2017-01-15T06:44:15.505Z,2.35
2017-01-15T06:45:15.497Z,2.25
2017-01-15T06:46:15.497Z,2.26
2017-01-15T06:47:14.905Z,2.23
2017-01-15T06:48:14.936Z,2.28
2017-01-15T06:49:15.527Z,2.33
2017-01-15T06:50:15.802Z,2.16
2017-01-15T06:51:15.994Z,2.33
2017-01-15T06:52:15.746Z,2.31
2017-01-15T06:53:15.931Z,2.3
2017-01-15T06:54:14.563Z,2.37
2017-01-15T06:55:15.279Z,2.4
2017-01-15T06:56:15.340Z,2.43
2017-01-15T06:57:15.211Z,2.44
2017-01-15T06:58:15.308Z,2.35
2017-01-15T06:59:14.826Z,2.38
2017-01-15T07:00:15.585Z,2.31
2017-01-15T07:01:15.845Z,2.44
2017-01-15T07:02:15.862Z,2.35
2017-01-15T07:03:15.326Z,2.31
2017-01-15T07:04:14.386Z,2.3
2017-01-15T07:05:14.672Z,2.33
2017-01-15T07:06:14.406Z,2.46
2017-01-15T07:07:14.970Z,2.34
2017-01-15T07:08:14.583Z,2.31
2017-01-15T07:09:15.395Z,2.4
2017-01-15T07:10:15.192Z,2.41
2017-01-15T07:11:15.579Z,2.38
2017-01-15T07:12:14.919Z,2.4
2017-01-15T07:13:15.052Z,2.41
2017-01-15T07:14:14.522Z,2.37
2017-01-15T07:15:15.137Z,2.23
2017-01-15T07:16:14.684Z,2.19
2017-01-15T07:17:15.417Z,2.34
2017-01-15T07:18:15.378Z,2.31
2017-01-15T07:19:14.699Z,2.38
2017-01-15T07:20:14.728Z,2.43
2017-01-15T07:21:14.987Z,2.49
2017-01-15T07:22:13.977Z,2.49
2017-01-15T07:23:13.956Z,2.44
2017-01-15T07:24:14.145Z,2.31
2017-01-15T07:25:14.137Z,2.37
2017-01-15T07:26:14.834Z,2.55
2017-01-15T07:27:13.675Z,2.49
2017-01-15T07:28:14.504Z,2.49
2017-01-15T07:29:14.145Z,2.44
2017-01-15T07:30:14.739Z,2.49
2017-01-15T07:31:15.072Z,2.38
2017-01-15T07:32:14.663Z,2.43
2017-01-15T07:33:15.011Z,2.4
2017-01-15T07:34:13.568Z,2.53
2017-01-15T07:35:13.533Z,2.49
2017-01-15T07:36:14.904Z,2.44
2017-01-15T07:37:14.139Z,2.58
2017-01-15T07:38:14.190Z,2.49
2017-01-15T07:39:14.034Z,2.52
2017-01-15T07:40:13.814Z,2.49
2017-01-15T07:41:14.127Z,2.53
2017-01-15T07:42:13.768Z,2.49
2017-01-15T07:43:14.376Z,2.48
2017-01-15T07:44:14.365Z,2.44
2017-01-15T07:45:13.261Z,2.44
2017-01-15T07:46:14.294Z,2.49
2017-01-15T07:47:14.617Z,2.52
2017-01-15T07:48:13.265Z,2.51
2017-01-15T07:49:13.568Z,2.53
2017-01-15T07:50:13.451Z,2.55
2017-01-15T07:51:14.163Z,2.48
2017-01-15T07:52:13.730Z,2.51
2017-01-15T07:53:13.855Z,2.48
2017-01-15T07:54:13.748Z,2.53
2017-01-15T07:55:13.778Z,2.67
2017-01-15T07:56:13.548Z,2.7
2017-01-15T07:57:13.787Z,2.66
2017-01-15T07:58:13.663Z,2.69
2017-01-15T07:59:13.717Z,2.64
2017-01-15T08:00:13.373Z,2.73
2017-01-15T08:01:14.074Z,2.79
2017-01-15T08:02:14.226Z,2.79
2017-01-15T08:03:12.875Z,2.85
2017-01-15T08:04:12.882Z,2.77
2017-01-15T08:05:13.332Z,2.87
2017-01-15T08:06:13.771Z,2.87
2017-01-15T08:07:12.736Z,2.87
2017-01-15T08:08:13.904Z,2.87
2017-01-15T08:09:13.010Z,3.02
2017-01-15T08:10:13.553Z,3.09
2017-01-15T08:11:13.274Z,3.07
2017-01-15T08:12:13.272Z,3.16
2017-01-15T08:13:13.752Z,3.17
2017-01-15T08:14:13.296Z,3.25
2017-01-15T08:15:13.740Z,3.28
2017-01-15T08:16:13.598Z,3.46
2017-01-15T08:17:13.161Z,3.44
2017-01-15T08:18:12.515Z,3.46
2017-01-15T08:19:12.824Z,3.44
2017-01-15T08:20:13.432Z,3.44
2017-01-15T08:21:12.670Z,3.54
2017-01-15T08:22:13.002Z,3.56
2017-01-15T08:23:12.264Z,3.6
2017-01-15T08:24:12.981Z,3.57
2017-01-15T08:25:12.954Z,3.68
2017-01-15T08:26:12.790Z,3.92
2017-01-15T08:27:12.572Z,4.03
2017-01-15T08:28:12.627Z,4.08
2017-01-15T08:29:12.188Z,3.89
2017-01-15T08:30:13.143Z,3.89
2017-01-15T08:31:13.096Z,3.75
2017-01-15T08:32:12.755Z,3.78
2017-01-15T08:33:13.373Z,3.79
2017-01-15T08:34:11.901Z,3.87
2017-01-15T08:35:13.340Z,4.05
2017-01-15T08:36:12.664Z,4.23
2017-01-15T08:37:12.682Z,4.22
2017-01-15T08:38:12.202Z,4.07
2017-01-15T08:39:11.862Z,3.9
2017-01-15T08:40:12.221Z,3.87
2017-01-15T08:41:13.199Z,3.97
2017-01-15T08:42:12.472Z,3.79
2017-01-15T08:43:11.814Z,3.74
2017-01-15T08:44:12.370Z,3.67
2017-01-15T08:45:12.748Z,3.7
2017-01-15T08:46:12.396Z,3.53
2017-01-15T08:47:13.057Z,3.44
2017-01-15T08:48:12.350Z,3.56
2017-01-15T08:49:12.188Z,3.44
2017-01-15T08:50:12.163Z,3.34
2017-01-15T08:51:12.604Z,3.37
2017-01-15T08:52:11.825Z,3.34
2017-01-15T08:53:12.873Z,3.46
2017-01-15T08:54:12.533Z,3.34
2017-01-15T08:55:12.025Z,3.42
2017-01-15T08:56:12.142Z,3.46
2017-01-15T08:57:12.781Z,3.52
2017-01-15T08:58:11.691Z,3.56
2017-01-15T08:59:12.411Z,3.57
2017-01-15T09:00:11.679Z,3.61
2017-01-15T09:01:12.691Z,3.61
2017-01-15T09:02:11.991Z,3.6
2017-01-15T09:03:12.303Z,3.37
2017-01-15T09:04:11.207Z,3.31
2017-01-15T09:05:11.844Z,3.25
2017-01-15T09:06:11.577Z,3.15
2017-01-15T09:07:11.876Z,3.25
2017-01-15T09:08:11.851Z,3.05
2017-01-15T09:09:11.166Z,3.03
2017-01-15T09:10:11.750Z,3.12
2017-01-15T09:11:11.030Z,3.19
2017-01-15T09:12:11.635Z,3.17
2017-01-15T09:13:12.350Z,3.17
2017-01-15T09:14:11.443Z,3.28
2017-01-15T09:15:11.982Z,3.09
2017-01-15T09:16:12.301Z,3.24
2017-01-15T09:17:11.953Z,3.1
2017-01-15T09:18:11.642Z,3.07
2017-01-15T09:19:12.204Z,3.25
2017-01-15T09:20:12.183Z,3.21
2017-01-15T09:21:11.491Z,3.09
2017-01-15T09:22:11.161Z,3.27
2017-01-15T09:23:11.770Z,3.12
2017-01-15T09:24:11.170Z,3.1
2017-01-15T09:25:11.721Z,3.15
2017-01-15T09:26:12.052Z,3.24
2017-01-15T09:27:10.934Z,3.06
2017-01-15T09:28:10.985Z,3.07
2017-01-15T09:29:11.624Z,3.17
2017-01-15T09:30:11.059Z,3.07
2017-01-15T09:31:11.244Z,3.21
2017-01-15T09:32:11.554Z,3.23
2017-01-15T09:33:11.523Z,3.24
2017-01-15T09:34:11.533Z,3.43
2017-01-15T09:35:11.162Z,3.9
2017-01-15T09:36:11.781Z,4.5
2017-01-15T09:37:11.101Z,4.65
2017-01-15T09:38:10.645Z,5.1
2017-01-15T09:39:11.715Z,5.32
2017-01-15T09:40:11.008Z,5.71
2017-01-15T09:41:11.500Z,6.1
2017-01-15T09:42:10.815Z,6.07
2017-01-15T09:43:10.935Z,5.95
2017-01-15T09:44:11.248Z,5.86
2017-01-15T09:45:10.740Z,5.57
2017-01-15T09:46:10.737Z,5.29
2017-01-15T09:47:10.854Z,5.11
2017-01-15T09:48:10.416Z,5.11
2017-01-15T09:49:11.464Z,5.2
2017-01-15T09:50:10.434Z,5.38
2017-01-15T09:51:10.103Z,5.37
2017-01-15T09:52:10.635Z,5.59
2017-01-15T09:53:10.741Z,5.65
2017-01-15T09:54:11.334Z,5.85
2017-01-15T09:55:10.963Z,5.81
2017-01-15T09:56:09.982Z,5.96
2017-01-15T09:57:10.547Z,6.14
2017-01-15T09:58:10.576Z,6.43
2017-01-15T09:59:10.238Z,6.51
2017-01-15T10:00:10.440Z,6.59
2017-01-15T10:01:10.532Z,6.57
2017-01-15T10:02:09.678Z,6.96
2017-01-15T10:03:10.788Z,7.27
2017-01-15T10:04:10.039Z,7.63
2017-01-15T10:05:10.221Z,8.16
2017-01-15T10:06:10.415Z,8.7
2017-01-15T10:07:10.065Z,8.97
2017-01-15T10:08:10.423Z,9.17
2017-01-15T10:09:11.028Z,9.11
2017-01-15T10:10:10.389Z,9.24
2017-01-15T10:11:10.311Z,8.72
2017-01-15T10:12:09.665Z,8.07
2017-01-15T10:13:10.305Z,8.36
2017-01-15T10:14:10.281Z,8.72
2017-01-15T10:15:10.549Z,9.17
2017-01-15T10:16:10.830Z,9.65
2017-01-15T10:17:10.536Z,9.58
2017-01-15T10:18:10.850Z,9.89
2017-01-15T10:19:09.752Z,9.93
2017-01-15T10:20:09.934Z,10.01
2017-01-15T10:21:10.163Z,10.16
2017-01-15T10:22:10.778Z,10.56
2017-01-15T10:23:10.665Z,10.8
2017-01-15T10:24:10.615Z,10.84
2017-01-15T10:25:10.613Z,11.15
2017-01-15T10:26:10.058Z,11.03
2017-01-15T10:27:10.366Z,11.18
2017-01-15T10:28:10.057Z,11.31
2017-01-15T10:29:10.017Z,11.11
2017-01-15T10:30:10.652Z,11.28
2017-01-15T10:31:10.615Z,11.17
2017-01-15T10:32:09.884Z,11.47
2017-01-15T10:33:09.954Z,11.48
2017-01-15T10:34:10.455Z,11.84
2017-01-15T10:35:09.527Z,11.86
2017-01-15T10:36:09.081Z,11.89
2017-01-15T10:37:10.573Z,12.35
2017-01-15T10:38:10.048Z,12.45
2017-01-15T10:39:10.161Z,12.5
2017-01-15T10:40:09.517Z,12.42
2017-01-15T10:41:10.032Z,12.49
2017-01-15T10:42:10.139Z,12.5
2017-01-15T10:43:10.239Z,12.37
2017-01-15T10:44:09.769Z,12.03
2017-01-15T10:45:09.748Z,12.21
2017-01-15T10:46:10.096Z,12.05
2017-01-15T10:47:09.757Z,11.83
2017-01-15T10:48:09.797Z,11.98
2017-01-15T10:49:09.651Z,12.1
2017-01-15T10:50:10.347Z,12.42
2017-01-15T10:51:09.355Z,12.35
2017-01-15T10:52:09.674Z,12.49
2017-01-15T10:53:10.301Z,12.5
2017-01-15T10:54:09.306Z,12.5
2017-01-15T10:55:09.977Z,12.6
2017-01-15T10:56:08.963Z,12.73
2017-01-15T10:57:09.613Z,12.86
2017-01-15T10:58:10.222Z,12.17
2017-01-15T10:59:09.499Z,11.97
2017-01-15T11:00:10.061Z,11.95
2017-01-15T11:01:09.865Z,11.2
2017-01-15T11:02:09.536Z,11.02
2017-01-15T11:03:10.041Z,10.46
2017-01-15T11:04:08.936Z,9.79
2017-01-15T11:05:09.524Z,9.35
2017-01-15T11:06:08.787Z,9.31
2017-01-15T11:07:09.467Z,8.97
2017-01-15T11:08:09.779Z,8.9
2017-01-15T11:09:09.779Z,9.02
2017-01-15T11:10:09.977Z,9.28
2017-01-15T11:11:09.922Z,9.38
2017-01-15T11:12:08.975Z,9.74
2017-01-15T11:13:08.714Z,10.23
2017-01-15T11:14:10.024Z,10.71
2017-01-15T11:15:09.123Z,11.15
2017-01-15T11:16:09.294Z,11.13
2017-01-15T11:17:09.293Z,11.47
2017-01-15T11:18:08.857Z,11.21
2017-01-15T11:19:08.516Z,11.2
2017-01-15T11:20:08.971Z,10.93
2017-01-15T11:21:09.220Z,10.81
2017-01-15T11:22:09.212Z,10.1
2017-01-15T11:23:09.850Z,9.52
2017-01-15T11:24:09.185Z,9.56
2017-01-15T11:25:08.469Z,9.56
2017-01-15T11:26:08.820Z,9.5
2017-01-15T11:27:09.799Z,9.92
2017-01-15T11:28:09.436Z,10.19
2017-01-15T11:29:09.426Z,10.18
2017-01-15T11:30:08.756Z,10.48
2017-01-15T11:31:09.427Z,11.28
2017-01-15T11:32:09.057Z,11.58
2017-01-15T11:33:09.001Z,11.98
2017-01-15T11:34:09.673Z,12.17
2017-01-15T11:35:08.433Z,11.97
2017-01-15T11:36:09.522Z,11.13
2017-01-15T11:37:09.168Z,10.74
2017-01-15T11:38:08.604Z,10.38
2017-01-15T11:39:08.233Z,10.36
2017-01-15T11:40:09.571Z,10.66
2017-01-15T11:41:08.741Z,11
2017-01-15T11:42:08.790Z,11.08
2017-01-15T11:43:09.363Z,11.53
2017-01-15T11:44:09.518Z,11.79
2017-01-15T11:45:08.827Z,11.79
2017-01-15T11:46:08.468Z,11.84
2017-01-15T11:47:08.799Z,11.79
2017-01-15T11:48:09.321Z,11.76
2017-01-15T11:49:09.393Z,11.81
2017-01-15T11:50:08.783Z,11.84
2017-01-15T11:51:09.393Z,11.91
2017-01-15T11:52:08.044Z,12.45
2017-01-15T11:53:08.540Z,12.2
2017-01-15T11:54:07.931Z,12.49
2017-01-15T11:55:08.493Z,12.85
2017-01-15T11:56:08.632Z,12.96
2017-01-15T11:57:08.193Z,13.01
2017-01-15T11:58:09.016Z,12.17
2017-01-15T11:59:08.507Z,11.43
2017-01-15T12:00:08.492Z,10.84
2017-01-15T12:01:09.224Z,10.33
2017-01-15T12:02:08.513Z,10.11
2017-01-15T12:03:08.538Z,9.87
2017-01-15T12:04:09.157Z,9.54
2017-01-15T12:05:07.831Z,9.47
2017-01-15T12:06:09.117Z,9.02
2017-01-15T12:07:08.767Z,8.72
2017-01-15T12:08:08.425Z,8.33
2017-01-15T12:09:08.403Z,7.64
2017-01-15T12:10:08.064Z,7.75
2017-01-15T12:11:08.394Z,7.91
2017-01-15T12:12:08.020Z,7.57
2017-01-15T12:13:08.628Z,7.59
2017-01-15T12:14:08.342Z,7.59
2017-01-15T12:15:08.630Z,7.72
2017-01-15T12:16:08.644Z,7.75
2017-01-15T12:17:07.621Z,7.7
2017-01-15T12:18:08.878Z,7.59
2017-01-15T12:19:08.544Z,7.72
2017-01-15T12:20:08.508Z,7.83
2017-01-15T12:21:07.768Z,7.76
2017-01-15T12:22:08.514Z,7.73
2017-01-15T12:23:08.469Z,7.88
2017-01-15T12:24:08.136Z,7.78
2017-01-15T12:25:08.793Z,7.6
2017-01-15T12:26:08.776Z,7.68
2017-01-15T12:27:08.384Z,7.59
2017-01-15T12:28:08.376Z,7.27
2017-01-15T12:29:08.038Z,7.16
2017-01-15T12:30:08.782Z,7.17
2017-01-15T12:31:07.647Z,7.41
2017-01-15T12:32:07.969Z,7.72
2017-01-15T12:33:07.132Z,7.63
2017-01-15T12:34:07.602Z,7.45
2017-01-15T12:35:08.222Z,7.42
2017-01-15T12:36:07.791Z,7.37
2017-01-15T12:37:08.185Z,7.31
2017-01-15T12:38:07.763Z,7.39
2017-01-15T12:39:08.454Z,7.39
2017-01-15T12:40:08.167Z,7.39
2017-01-15T12:41:07.439Z,7.41
2017-01-15T12:42:08.427Z,7.23
2017-01-15T12:43:07.639Z,7.11
2017-01-15T12:44:07.035Z,7.12
2017-01-15T12:45:07.047Z,7.09
2017-01-15T12:46:07.646Z,6.91
2017-01-15T12:47:07.252Z,6.68
2017-01-15T12:48:07.625Z,6.59
2017-01-15T12:49:07.204Z,6.51
2017-01-15T12:50:07.311Z,6.7
2017-01-15T12:51:07.340Z,6.69
2017-01-15T12:52:07.880Z,6.57
2017-01-15T12:53:07.850Z,6.57
2017-01-15T12:54:07.529Z,6.77
2017-01-15T12:55:07.779Z,6.72
2017-01-15T12:56:07.437Z,6.69
2017-01-15T12:57:07.777Z,6.73
2017-01-15T12:58:06.796Z,6.91
2017-01-15T12:59:07.381Z,7.44
2017-01-15T13:00:07.276Z,7.45
2017-01-15T13:01:07.247Z,7.75
2017-01-15T13:02:06.693Z,7.78
2017-01-15T13:03:06.963Z,7.67
2017-01-15T13:04:07.938Z,7.42
2017-01-15T13:05:07.572Z,7.29
2017-01-15T13:06:06.501Z,7.19
2017-01-15T13:07:07.213Z,7.05
2017-01-15T13:08:07.705Z,6.88
2017-01-15T13:09:06.917Z,6.93
2017-01-15T13:10:06.820Z,6.88
2017-01-15T13:11:07.009Z,7.08
2017-01-15T13:12:06.978Z,7.08
2017-01-15T13:13:07.739Z,6.93
2017-01-15T13:14:07.476Z,7.05
2017-01-15T13:15:06.414Z,7.09
2017-01-15T13:16:07.707Z,7.53
2017-01-15T13:17:07.196Z,7.9